createdAt,value
2018-06-20T00:00:20.625Z,90.60
2018-06-20T00:02:48.979Z,90.60
2018-06-20T00:05:17.280Z,90.70
2018-06-20T00:07:45.753Z,90.90
2018-06-20T00:10:14.104Z,91.10
2018-06-20T00:15:10.458Z,90.80
2018-06-20T00:17:38.840Z,90.80
2018-06-20T00:20:07.168Z,90.80
2018-06-20T00:22:35.489Z,90.80
2018-06-20T00:25:03.853Z,90.70
2018-06-20T00:27:32.176Z,90.80
2018-06-20T00:32:28.492Z,90.90
2018-06-20T00:34:56.872Z,90.80
2018-06-20T00:37:25.223Z,90.80
2018-06-20T00:39:53.528Z,90.90
2018-06-20T00:42:21.862Z,90.90
2018-06-20T00:44:51.070Z,90.90
2018-06-20T00:47:19.386Z,91.20
2018-06-20T00:49:47.788Z,90.90
2018-06-20T00:52:16.103Z,91.00
2018-06-20T00:57:12.435Z,91.70
2018-06-20T00:59:40.756Z,91.60
2018-06-20T01:02:09.046Z,91.40
2018-06-20T01:04:37.387Z,91.30
2018-06-20T01:07:05.680Z,91.30
2018-06-20T01:09:33.979Z,91.20
2018-06-20T01:12:02.286Z,91.20
2018-06-20T01:14:30.635Z,91.30
2018-06-20T01:16:58.984Z,91.60
2018-06-20T01:19:27.321Z,91.60
2018-06-20T01:21:55.628Z,91.60
2018-06-20T01:24:23.932Z,91.50
2018-06-20T01:26:52.253Z,91.60
2018-06-20T01:29:20.557Z,91.60
2018-06-20T01:31:48.993Z,91.80
2018-06-20T01:34:17.296Z,91.90
2018-06-20T01:36:45.611Z,91.90
2018-06-20T01:39:13.954Z,91.70
2018-06-20T01:41:42.275Z,91.60
2018-06-20T01:44:10.560Z,91.50
2018-06-20T01:46:38.909Z,91.40
2018-06-20T01:49:07.270Z,91.30
2018-06-20T01:51:35.605Z,91.30
2018-06-20T01:54:03.957Z,91.40
2018-06-20T01:56:32.257Z,91.30
2018-06-20T01:59:00.567Z,91.30
2018-06-20T02:01:28.893Z,91.30
2018-06-20T02:03:57.254Z,91.40
2018-06-20T02:06:25.548Z,91.30
2018-06-20T02:08:59.640Z,91.40
2018-06-20T02:11:29.754Z,91.50
2018-06-20T02:13:58.080Z,91.60
2018-06-20T02:16:26.409Z,91.60
2018-06-20T02:18:54.723Z,91.60
2018-06-20T02:21:23.002Z,91.50
2018-06-20T02:23:51.291Z,91.40
2018-06-20T02:26:19.609Z,91.50
2018-06-20T02:28:47.928Z,91.50
2018-06-20T02:31:16.257Z,91.50
2018-06-20T02:33:45.272Z,91.50
2018-06-20T02:36:19.388Z,91.50
2018-06-20T02:38:49.617Z,91.40
2018-06-20T02:41:18.547Z,91.30
2018-06-20T02:43:47.609Z,91.40
2018-06-20T02:46:16.556Z,91.50
2018-06-20T02:48:45.476Z,91.50
2018-06-20T02:51:14.121Z,91.40
2018-06-20T02:53:43.166Z,91.40
2018-06-20T02:56:12.124Z,91.50
2018-06-20T02:58:40.755Z,91.60
2018-06-20T03:01:09.087Z,91.80
2018-06-20T03:03:37.423Z,91.80
2018-06-20T03:06:05.748Z,92.10
2018-06-20T03:08:34.087Z,92.10
2018-06-20T03:11:02.414Z,92.00
2018-06-20T03:13:30.760Z,91.90
2018-06-20T03:15:59.073Z,91.80
2018-06-20T03:18:27.561Z,91.80
2018-06-20T03:20:55.937Z,92.20
2018-06-20T03:23:24.284Z,92.10
2018-06-20T03:25:52.575Z,92.00
2018-06-20T03:28:20.931Z,91.70
2018-06-20T03:30:49.234Z,91.60
2018-06-20T03:33:17.573Z,91.50
2018-06-20T03:35:45.884Z,91.60
2018-06-20T03:38:14.212Z,91.50
2018-06-20T03:40:42.532Z,91.70
2018-06-20T03:43:10.850Z,91.60
2018-06-20T03:45:39.144Z,91.60
2018-06-20T03:48:07.439Z,91.80
2018-06-20T03:50:35.708Z,91.80
2018-06-20T03:53:04.025Z,91.70
2018-06-20T03:55:32.325Z,91.70
2018-06-20T03:58:00.637Z,91.70
2018-06-20T04:00:28.912Z,91.90
2018-06-20T04:02:57.225Z,92.60
2018-06-20T04:05:28.064Z,92.20
2018-06-20T04:07:56.421Z,92.10
2018-06-20T04:10:24.718Z,92.10
2018-06-20T04:12:53.024Z,92.10
2018-06-20T04:15:21.383Z,92.20
2018-06-20T04:17:49.706Z,92.50
2018-06-20T04:22:46.074Z,92.20
2018-06-20T04:25:14.347Z,92.30
2018-06-20T04:27:42.709Z,92.30
2018-06-20T04:30:11.029Z,92.20
2018-06-20T04:32:39.349Z,92.30
2018-06-20T04:35:07.885Z,92.40
2018-06-20T04:37:36.712Z,92.60
2018-06-20T04:40:05.019Z,92.60
2018-06-20T04:42:33.389Z,92.60
2018-06-20T04:45:01.696Z,92.40
2018-06-20T04:47:29.991Z,92.80
2018-06-20T04:49:58.341Z,92.80
2018-06-20T04:52:26.742Z,92.80
2018-06-20T04:54:55.021Z,92.70
2018-06-20T04:57:23.330Z,92.80
2018-06-20T04:59:51.654Z,92.90
2018-06-20T05:02:19.969Z,93.10
2018-06-20T05:04:48.276Z,93.00
2018-06-20T05:07:16.591Z,93.00
2018-06-20T05:09:44.867Z,93.00
2018-06-20T05:12:13.196Z,93.00
2018-06-20T05:14:41.486Z,92.80
2018-06-20T05:17:09.827Z,93.00
2018-06-20T05:19:38.132Z,93.00
2018-06-20T05:22:06.464Z,93.10
2018-06-20T05:24:34.799Z,92.90
2018-06-20T05:27:03.117Z,92.90
2018-06-20T05:29:31.455Z,93.00
2018-06-20T05:31:59.835Z,93.10
2018-06-20T05:34:28.180Z,93.00
2018-06-20T05:36:56.480Z,93.10
2018-06-20T05:39:24.851Z,93.20
2018-06-20T05:41:53.195Z,93.10
2018-06-20T05:44:21.545Z,93.00
2018-06-20T05:46:49.890Z,93.00
2018-06-20T05:49:18.259Z,92.70
2018-06-20T05:51:46.652Z,92.90
2018-06-20T05:54:15.060Z,92.60
2018-06-20T05:56:43.406Z,92.80
2018-06-20T05:59:11.763Z,92.60
2018-06-20T06:04:08.209Z,92.40
2018-06-20T06:06:36.594Z,92.50
2018-06-20T06:09:07.294Z,92.70
2018-06-20T06:11:35.630Z,92.80
2018-06-20T06:14:04.041Z,93.00
2018-06-20T06:16:42.798Z,92.80
2018-06-20T06:19:11.205Z,92.80
2018-06-20T06:21:39.574Z,92.50
2018-06-20T06:24:07.939Z,92.70
2018-06-20T06:26:36.268Z,92.60
2018-06-20T06:29:04.882Z,92.30
2018-06-20T06:31:33.734Z,92.30
2018-06-20T06:36:30.813Z,92.30
2018-06-20T06:41:27.827Z,92.20
2018-06-20T06:43:56.514Z,92.30
2018-06-20T06:46:24.879Z,92.10
2018-06-20T06:48:53.348Z,91.80
2018-06-20T06:51:21.818Z,91.90
2018-06-20T06:53:50.299Z,91.60
2018-06-20T06:56:18.764Z,91.80
2018-06-20T06:58:47.153Z,91.70
2018-06-20T07:01:15.650Z,92.00
2018-06-20T07:03:44.021Z,91.50
2018-06-20T07:06:12.491Z,91.60
2018-06-20T07:08:40.944Z,91.70
2018-06-20T07:11:09.639Z,91.70
2018-06-20T07:13:38.069Z,91.50
2018-06-20T07:16:06.436Z,91.40
2018-06-20T07:18:34.859Z,91.70
2018-06-20T07:23:34.599Z,91.70
2018-06-20T07:26:02.984Z,91.70
2018-06-20T07:28:31.385Z,91.50
2018-06-20T07:30:59.823Z,91.60
2018-06-20T07:33:28.308Z,91.60
2018-06-20T07:35:56.768Z,91.50
2018-06-20T07:38:25.139Z,91.40
2018-06-20T07:40:53.570Z,91.40
2018-06-20T07:43:22.068Z,91.20
2018-06-20T07:45:51.329Z,91.10
2018-06-20T07:48:20.205Z,90.90
2018-06-20T07:50:48.728Z,91.00
2018-06-20T07:53:17.094Z,90.90
2018-06-20T07:55:45.477Z,90.90
2018-06-20T07:58:19.209Z,91.20
2018-06-20T08:00:52.996Z,90.50
2018-06-20T08:03:26.600Z,90.80
2018-06-20T08:06:00.388Z,90.60
2018-06-20T08:08:34.097Z,90.50
2018-06-20T08:11:07.838Z,90.40
2018-06-20T08:13:41.444Z,90.40
2018-06-20T08:16:15.175Z,90.20
2018-06-20T08:18:48.875Z,90.30
2018-06-20T08:21:17.427Z,90.20
2018-06-20T08:23:45.808Z,90.30
2018-06-20T08:26:17.913Z,90.10
2018-06-20T08:28:46.266Z,90.30
2018-06-20T08:31:14.728Z,90.20
2018-06-20T08:33:43.161Z,90.10
2018-06-20T08:36:11.758Z,90.00
2018-06-20T08:38:40.085Z,90.00
2018-06-20T08:41:08.466Z,90.10
2018-06-20T08:43:36.850Z,90.30
2018-06-20T08:46:05.256Z,90.10
2018-06-20T08:51:01.962Z,90.10
2018-06-20T08:53:30.325Z,90.10
2018-06-20T08:55:58.744Z,90.10
2018-06-20T08:58:27.091Z,90.40
2018-06-20T09:01:02.279Z,90.00
2018-06-20T09:03:30.769Z,90.20
2018-06-20T09:06:04.264Z,90.30
2018-06-20T09:08:37.956Z,90.30
2018-06-20T09:11:11.638Z,90.30
2018-06-20T09:13:41.330Z,90.30
2018-06-20T09:16:15.108Z,90.30
2018-06-20T09:18:48.858Z,90.20
2018-06-20T09:21:17.270Z,90.00
2018-06-20T09:23:45.656Z,90.30
2018-06-20T09:27:43.506Z,90.10
2018-06-20T09:30:16.653Z,90.20
2018-06-20T09:32:45.053Z,90.00
2018-06-20T09:35:15.123Z,89.90
2018-06-20T09:37:44.129Z,89.70
2018-06-20T09:40:13.196Z,89.10
2018-06-20T09:42:41.674Z,88.90
2018-06-20T09:45:10.034Z,88.30
2018-06-20T09:47:38.701Z,88.50
2018-06-20T09:50:12.596Z,88.30
2018-06-20T09:52:44.128Z,88.30
2018-06-20T09:55:12.523Z,88.00
2018-06-20T09:57:40.925Z,87.30
2018-06-20T10:02:23.226Z,87.20
2018-06-20T10:04:57.079Z,86.70
2018-06-20T10:07:30.824Z,86.20
2018-06-20T10:10:04.757Z,84.60
2018-06-20T10:12:55.116Z,84.00
2018-06-20T10:15:23.477Z,84.50
2018-06-20T10:17:51.881Z,84.30
2018-06-20T10:20:25.660Z,84.00
2018-06-20T10:22:54.320Z,84.20
2018-06-20T10:25:22.739Z,84.20
2018-06-20T10:27:51.052Z,83.70
2018-06-20T10:30:19.578Z,84.10
2018-06-20T10:32:49.335Z,83.60
2018-06-20T10:35:18.117Z,83.10
2018-06-20T10:37:46.705Z,84.00
2018-06-20T10:40:16.476Z,82.50
2018-06-20T10:42:45.066Z,82.30
2018-06-20T10:45:19.373Z,82.50
2018-06-20T10:47:49.009Z,82.40
2018-06-20T10:50:17.733Z,82.20
2018-06-20T10:52:46.149Z,81.40
2018-06-20T10:55:15.838Z,79.80
2018-06-20T10:57:50.587Z,77.40
2018-06-20T11:00:24.266Z,77.60
2018-06-20T11:02:58.245Z,76.90
2018-06-20T11:05:32.283Z,76.80
2018-06-20T11:08:06.147Z,78.20
2018-06-20T11:10:39.734Z,75.90
2018-06-20T11:13:12.776Z,73.80
2018-06-20T11:15:41.194Z,75.00
2018-06-20T11:18:09.528Z,74.10
2018-06-20T11:20:43.433Z,71.80
2018-06-20T11:23:11.992Z,72.50
2018-06-20T11:25:40.370Z,72.10
2018-06-20T11:28:13.722Z,73.20
2018-06-20T11:30:43.437Z,72.20
2018-06-20T11:33:15.469Z,71.90
2018-06-20T11:35:44.121Z,72.50
2018-06-20T11:38:12.572Z,73.00
2018-06-20T11:40:41.040Z,71.90
2018-06-20T11:43:09.507Z,70.80
2018-06-20T11:45:43.390Z,69.30
2018-06-20T11:53:09.245Z,67.80
2018-06-20T11:55:39.784Z,67.80
2018-06-20T11:58:13.882Z,66.60
2018-06-20T12:00:47.510Z,66.70
2018-06-20T12:03:21.218Z,67.00
2018-06-20T12:05:54.960Z,67.20
2018-06-20T12:08:28.761Z,67.50
2018-06-20T12:11:02.916Z,66.90
2018-06-20T12:13:36.605Z,66.20
2018-06-20T12:16:10.417Z,65.80
2018-06-20T12:18:44.157Z,65.00
2018-06-20T12:21:17.928Z,65.30
2018-06-20T12:23:52.088Z,63.70
2018-06-20T12:26:25.954Z,63.30
2018-06-20T12:29:00.475Z,64.60
2018-06-20T12:31:34.190Z,65.00
2018-06-20T12:34:08.023Z,65.60
2018-06-20T12:36:42.027Z,65.00
2018-06-20T12:39:10.060Z,64.00
2018-06-20T12:41:43.757Z,63.20
2018-06-20T12:45:20.218Z,62.10
2018-06-20T12:47:50.188Z,62.40
2018-06-20T12:50:20.680Z,64.00
2018-06-20T12:52:49.856Z,62.30
2018-06-20T12:55:18.331Z,62.90
2018-06-20T12:57:46.835Z,62.40
2018-06-20T13:00:15.542Z,61.40
2018-06-20T13:02:44.223Z,61.90
2018-06-20T13:05:14.745Z,62.20
2018-06-20T13:07:43.115Z,60.90
2018-06-20T13:10:11.575Z,60.70
2018-06-20T13:12:40.335Z,62.00
2018-06-20T13:15:08.757Z,61.20
2018-06-20T13:17:39.042Z,60.60
2018-06-20T13:20:07.461Z,60.90
2018-06-20T13:22:36.197Z,60.60
2018-06-20T13:25:04.643Z,61.40
2018-06-20T13:27:38.473Z,60.70
2018-06-20T13:30:09.817Z,62.90
2018-06-20T13:32:43.650Z,60.60
2018-06-20T13:35:17.469Z,61.70
2018-06-20T13:37:56.955Z,61.10
2018-06-20T13:40:30.740Z,60.20
2018-06-20T13:43:04.676Z,60.00
2018-06-20T13:45:38.317Z,59.80
2018-06-20T13:48:12.193Z,59.10
2018-06-20T13:50:40.616Z,60.30
2018-06-20T13:53:09.104Z,60.10
2018-06-20T13:55:37.540Z,58.70
2018-06-20T13:58:16.200Z,59.10
2018-06-20T14:00:44.589Z,58.50
2018-06-20T14:05:41.069Z,58.90
2018-06-20T14:08:09.445Z,58.90
2018-06-20T14:13:05.836Z,58.70
2018-06-20T14:15:34.203Z,58.60
2018-06-20T14:18:02.600Z,60.50
2018-06-20T14:20:43.736Z,58.70
2018-06-20T14:23:12.540Z,59.70
2018-06-20T14:25:41.271Z,61.20
2018-06-20T14:28:09.705Z,60.30
2018-06-20T14:30:43.379Z,60.20
2018-06-20T14:33:16.958Z,61.10
2018-06-20T14:35:50.697Z,59.20
2018-06-20T14:38:24.381Z,59.80
2018-06-20T14:40:59.141Z,59.10
2018-06-20T14:43:32.877Z,57.90
2018-06-20T14:46:06.541Z,57.30
2018-06-20T14:48:34.949Z,57.90
2018-06-20T14:51:03.324Z,58.20
2018-06-20T14:53:31.783Z,58.40
2018-06-20T14:56:00.272Z,58.50
2018-06-20T14:58:28.674Z,59.00
2018-06-20T15:00:58.678Z,58.50
2018-06-20T15:03:27.076Z,59.40
2018-06-20T15:07:24.882Z,58.40
2018-06-20T15:09:53.381Z,58.00
2018-06-20T15:12:21.779Z,56.30
2018-06-20T15:14:50.242Z,56.20
2018-06-20T15:17:26.586Z,56.70
2018-06-20T15:19:55.285Z,56.90
2018-06-20T15:22:25.752Z,56.80
2018-06-20T15:24:54.140Z,56.60
2018-06-20T15:27:27.964Z,57.40
2018-06-20T15:30:01.457Z,58.50
2018-06-20T15:32:35.170Z,58.20
2018-06-20T15:35:08.934Z,56.10
2018-06-20T15:40:11.384Z,57.10
2018-06-20T15:42:52.187Z,55.90
2018-06-20T15:45:20.616Z,56.60
2018-06-20T15:47:49.033Z,57.30
2018-06-20T15:50:17.549Z,56.80
2018-06-20T15:52:46.076Z,56.60
2018-06-20T15:55:14.483Z,55.50
2018-06-20T15:57:42.999Z,54.90
2018-06-20T16:00:11.513Z,55.50
2018-06-20T16:02:40.203Z,54.20
2018-06-20T16:05:08.698Z,52.70
2018-06-20T16:07:37.379Z,52.80
2018-06-20T16:10:06.958Z,51.50
2018-06-20T16:12:35.347Z,52.60
2018-06-20T16:17:32.378Z,52.40
2018-06-20T16:20:06.309Z,53.50
2018-06-20T16:22:40.305Z,54.20
2018-06-20T16:25:13.966Z,54.60
2018-06-20T16:27:47.718Z,53.60
2018-06-20T16:30:21.691Z,54.10
2018-06-20T16:32:50.144Z,54.80
2018-06-20T16:35:18.632Z,56.50
2018-06-20T16:37:47.218Z,56.80
2018-06-20T16:40:15.574Z,56.50
2018-06-20T16:42:43.950Z,55.60
2018-06-20T16:45:13.936Z,56.70
2018-06-20T16:47:42.452Z,57.00
2018-06-20T16:50:10.861Z,57.10
2018-06-20T16:52:39.592Z,57.80
2018-06-20T16:55:07.946Z,58.00
2018-06-20T16:57:36.373Z,58.20
2018-06-20T17:00:05.346Z,58.80
2018-06-20T17:02:35.343Z,58.00
2018-06-20T17:07:33.165Z,58.10
2018-06-20T17:10:01.552Z,58.30
2018-06-20T17:12:35.354Z,58.20
2018-06-20T17:15:09.485Z,57.60
2018-06-20T17:17:43.367Z,57.20
2018-06-20T17:20:17.125Z,57.10
2018-06-20T17:22:50.825Z,57.00
2018-06-20T17:25:23.868Z,57.40
2018-06-20T17:27:57.808Z,57.30
2018-06-20T17:30:26.268Z,57.90
2018-06-20T17:32:54.743Z,58.80
2018-06-20T17:35:23.140Z,58.20
2018-06-20T17:37:51.553Z,57.90
2018-06-20T17:40:20.069Z,57.70
2018-06-20T17:42:48.495Z,57.50
2018-06-20T17:45:17.167Z,57.20
2018-06-20T17:47:45.705Z,57.50
2018-06-20T17:50:14.178Z,57.80
2018-06-20T17:52:42.551Z,57.70
2018-06-20T17:55:10.927Z,56.80
2018-06-20T17:57:39.510Z,57.00
2018-06-20T18:00:08.086Z,57.80
2018-06-20T18:02:36.485Z,55.70
2018-06-20T18:05:10.286Z,55.30
2018-06-20T18:07:43.854Z,54.30
2018-06-20T18:10:17.519Z,54.30
2018-06-20T18:12:51.404Z,53.90
2018-06-20T18:15:25.280Z,54.30
2018-06-20T18:17:53.652Z,54.90
2018-06-20T18:20:22.057Z,55.20
2018-06-20T18:22:50.418Z,55.40
2018-06-20T18:27:46.802Z,55.70
2018-06-20T18:30:22.913Z,55.40
2018-06-20T18:32:51.314Z,56.20
2018-06-20T18:35:19.685Z,57.40
2018-06-20T18:42:44.366Z,57.40
2018-06-20T18:45:12.779Z,57.40
2018-06-20T18:47:46.314Z,57.10
2018-06-20T18:50:14.741Z,57.50
2018-06-20T18:52:43.209Z,57.60
2018-06-20T18:55:11.703Z,57.70
2018-06-20T18:57:45.266Z,57.20
2018-06-20T19:00:19.044Z,57.30
2018-06-20T19:02:52.792Z,57.80
2018-06-20T19:05:27.245Z,59.00
2018-06-20T19:08:01.028Z,59.60
2018-06-20T19:10:29.479Z,60.60
2018-06-20T19:13:04.526Z,62.10
2018-06-20T19:15:32.875Z,62.30
2018-06-20T19:18:01.252Z,63.60
2018-06-20T19:20:29.639Z,64.00
2018-06-20T19:22:58.924Z,65.10
2018-06-20T19:25:27.279Z,65.30
2018-06-20T19:27:55.659Z,65.10
2018-06-20T19:30:24.061Z,65.80
2018-06-20T19:32:52.494Z,65.90
2018-06-20T19:35:22.597Z,66.00
2018-06-20T19:37:51.299Z,66.10
2018-06-20T19:40:19.752Z,66.20
2018-06-20T19:42:48.436Z,65.80
2018-06-20T19:45:16.796Z,66.20
2018-06-20T19:47:45.167Z,66.70
2018-06-20T19:50:13.593Z,67.20
2018-06-20T19:52:41.968Z,67.40
2018-06-20T19:55:10.338Z,68.00
2018-06-20T19:57:51.920Z,67.90
2018-06-20T20:00:20.336Z,68.10
2018-06-20T20:02:48.712Z,68.50
2018-06-20T20:05:17.113Z,69.00
2018-06-20T20:07:45.504Z,69.10
2018-06-20T20:10:13.829Z,69.40
2018-06-20T20:15:10.722Z,70.00
2018-06-20T20:17:39.253Z,70.20
2018-06-20T20:20:08.204Z,70.70
2018-06-20T20:22:36.564Z,71.30
2018-06-20T20:25:05.336Z,71.70
2018-06-20T20:27:33.756Z,71.90
2018-06-20T20:30:02.153Z,72.80
2018-06-20T20:32:30.561Z,73.40
2018-06-20T20:34:59.088Z,74.00
2018-06-20T20:37:27.480Z,74.00
2018-06-20T20:39:55.867Z,74.00
2018-06-20T20:42:24.573Z,74.30
2018-06-20T20:44:53.469Z,75.10
2018-06-20T20:47:21.946Z,75.00
2018-06-20T20:49:50.401Z,75.10
2018-06-20T20:52:18.806Z,74.80
2018-06-20T20:54:47.179Z,74.90
2018-06-20T20:59:43.636Z,75.20
2018-06-20T21:04:40.730Z,74.90
2018-06-20T21:07:09.197Z,74.80
2018-06-20T21:09:37.594Z,74.40
2018-06-20T21:12:06.037Z,74.00
2018-06-20T21:14:34.423Z,73.90
2018-06-20T21:17:02.901Z,73.90
2018-06-20T21:19:31.331Z,74.60
2018-06-20T21:21:59.752Z,73.50
2018-06-20T21:24:28.082Z,73.80
2018-06-20T21:26:56.457Z,73.80
2018-06-20T21:31:52.941Z,74.10
2018-06-20T21:34:21.392Z,74.30
2018-06-20T21:36:50.195Z,74.10
2018-06-20T21:44:14.792Z,74.10
2018-06-20T21:46:43.417Z,74.40
2018-06-20T21:54:51.620Z,75.60
2018-06-20T21:57:19.975Z,76.00
2018-06-20T21:59:48.361Z,75.90
2018-06-20T22:02:16.743Z,76.00
2018-06-20T22:04:45.065Z,76.30
2018-06-20T22:07:13.415Z,76.30
2018-06-20T22:09:42.509Z,76.40
2018-06-20T22:12:11.125Z,77.40
2018-06-20T22:14:39.424Z,78.20
2018-06-20T22:17:07.814Z,78.50
2018-06-20T22:22:04.436Z,79.80
2018-06-20T22:24:32.764Z,80.00
2018-06-20T22:27:01.097Z,80.70
2018-06-20T22:29:29.407Z,80.80
2018-06-20T22:31:57.760Z,81.20
2018-06-20T22:34:26.128Z,81.50
2018-06-20T22:36:54.464Z,81.40
2018-06-20T22:41:51.026Z,82.10
2018-06-20T22:44:19.430Z,81.80
2018-06-20T22:46:47.793Z,82.20
2018-06-20T22:49:16.136Z,82.50
2018-06-20T22:51:44.502Z,82.30
2018-06-20T22:54:12.853Z,82.90
2018-06-20T22:56:41.234Z,83.30
2018-06-20T22:59:10.332Z,83.50
2018-06-20T23:04:07.966Z,83.10
2018-06-20T23:06:36.471Z,83.50
2018-06-20T23:09:07.600Z,83.90
2018-06-20T23:11:41.346Z,84.40
2018-06-20T23:16:38.006Z,83.60
2018-06-20T23:19:06.834Z,82.90
2018-06-20T23:21:35.447Z,84.20
2018-06-20T23:24:03.883Z,84.50
2018-06-20T23:26:32.355Z,84.70
2018-06-20T23:31:29.529Z,85.00
2018-06-20T23:33:58.341Z,85.10
2018-06-20T23:36:27.067Z,84.80
2018-06-20T23:38:55.624Z,84.90
2018-06-20T23:41:24.033Z,84.80
2018-06-20T23:43:52.931Z,84.80
2018-06-20T23:46:21.298Z,84.70
2018-06-20T23:48:49.788Z,85.10
2018-06-20T23:51:18.226Z,84.90
2018-06-20T23:53:46.691Z,85.50
2018-06-20T23:56:15.400Z,85.20
2018-06-20T23:58:43.809Z,85.30
